sensor_id;sensor_type;location;lat;lon;timestamp;P1;durP1;ratioP1;P2;durP2;ratioP2
13319;SDS011;59599;47.608;12.190;2024-02-23T05:02:35;0.90;;;0.60;;
13319;SDS011;59599;47.608;12.190;2024-02-23T05:05:02;0.87;;;0.20;;
13319;SDS011;59599;47.608;12.190;2024-02-23T05:07:30;0.40;;;0.30;;
13319;SDS011;59599;47.608;12.190;2024-02-23T05:09:56;0.47;;;0.30;;
13319;SDS011;59599;47.608;12.190;2024-02-23T05:12:22;0.30;;;0.30;;
13319;SDS011;59599;47.608;12.190;2024-02-23T05:14:48;1.40;;;0.83;;
13319;SDS011;59599;47.608;12.190;2024-02-23T05:17:14;0.40;;;0.40;;
13319;SDS011;59599;47.608;12.190;2024-02-23T05:19:40;0.50;;;0.50;;
13319;SDS011;59599;47.608;12.190;2024-02-23T05:22:05;0.70;;;0.70;;
13319;SDS011;59599;47.608;12.190;2024-02-23T05:24:32;0.97;;;0.50;;
13319;SDS011;59599;47.608;12.190;2024-02-23T05:26:57;2.77;;;0.60;;
13319;SDS011;59599;47.608;12.190;2024-02-23T05:29:23;0.37;;;0.30;;
13319;SDS011;59599;47.608;12.190;2024-02-23T05:31:51;0.53;;;0.37;;
13319;SDS011;59599;47.608;12.190;2024-02-23T05:34:17;0.57;;;0.57;;
13319;SDS011;59599;47.608;12.190;2024-02-23T05:36:46;0.60;;;0.60;;
13319;SDS011;59599;47.608;12.190;2024-02-23T05:39:13;0.60;;;0.60;;
13319;SDS011;59599;47.608;12.190;2024-02-23T05:41:40;1.67;;;0.73;;
13319;SDS011;59599;47.608;12.190;2024-02-23T05:44:06;2.57;;;0.80;;
13319;SDS011;59599;47.608;12.190;2024-02-23T05:46:32;0.60;;;0.60;;
13319;SDS011;59599;47.608;12.190;2024-02-23T05:48:58;1.80;;;0.60;;
13319;SDS011;59599;47.608;12.190;2024-02-23T05:51:24;1.37;;;0.93;;
13319;SDS011;59599;47.608;12.190;2024-02-23T05:53:50;1.13;;;1.03;;
13319;SDS011;59599;47.608;12.190;2024-02-23T05:56:16;2.70;;;1.40;;
13319;SDS011;59599;47.608;12.190;2024-02-23T05:58:41;1.10;;;0.90;;
13319;SDS011;59599;47.608;12.190;2024-02-23T06:01:07;1.53;;;1.00;;
13319;SDS011;59599;47.608;12.190;2024-02-23T06:03:33;1.30;;;1.00;;
13319;SDS011;59599;47.608;12.190;2024-02-23T06:05:59;2.17;;;0.70;;
13319;SDS011;59599;47.608;12.190;2024-02-23T06:08:25;1.33;;;0.90;;
13319;SDS011;59599;47.608;12.190;2024-02-23T06:10:51;0.90;;;0.70;;
13319;SDS011;59599;47.608;12.190;2024-02-23T06:13:17;2.87;;;1.70;;
13319;SDS011;59599;47.608;12.190;2024-02-23T06:15:42;0.80;;;0.80;;
13319;SDS011;59599;47.608;12.190;2024-02-23T06:18:08;1.60;;;1.00;;
13319;SDS011;59599;47.608;12.190;2024-02-23T06:20:34;2.63;;;1.53;;
13319;SDS011;59599;47.608;12.190;2024-02-23T06:23:00;1.50;;;1.10;;
13319;SDS011;59599;47.608;12.190;2024-02-23T06:25:25;1.07;;;0.63;;
13319;SDS011;59599;47.608;12.190;2024-02-23T06:27:51;0.87;;;0.63;;
13319;SDS011;59599;47.608;12.190;2024-02-23T06:30:17;1.00;;;0.80;;
13319;SDS011;59599;47.608;12.190;2024-02-23T06:32:43;1.60;;;0.90;;
13319;SDS011;59599;47.608;12.190;2024-02-23T06:35:10;1.00;;;0.90;;
13319;SDS011;59599;47.608;12.190;2024-02-23T06:37:37;2.97;;;1.10;;
13319;SDS011;59599;47.608;12.190;2024-02-23T06:40:03;1.10;;;1.00;;
13319;SDS011;59599;47.608;12.190;2024-02-23T06:42:29;1.93;;;1.20;;
13319;SDS011;59599;47.608;12.190;2024-02-23T06:44:54;2.17;;;1.60;;
13319;SDS011;59599;47.608;12.190;2024-02-23T06:47:20;1.13;;;0.87;;
13319;SDS011;59599;47.608;12.190;2024-02-23T06:49:46;0.70;;;0.70;;
13319;SDS011;59599;47.608;12.190;2024-02-23T06:52:12;0.80;;;0.60;;
13319;SDS011;59599;47.608;12.190;2024-02-23T06:54:38;0.30;;;0.30;;
13319;SDS011;59599;47.608;12.190;2024-02-23T06:57:04;0.90;;;0.90;;
13319;SDS011;59599;47.608;12.190;2024-02-23T06:59:30;1.33;;;0.90;;
13319;SDS011;59599;47.608;12.190;2024-02-23T07:01:57;0.37;;;0.37;;
13319;SDS011;59599;47.608;12.190;2024-02-23T07:04:22;1.07;;;0.50;;
13319;SDS011;59599;47.608;12.190;2024-02-23T07:06:48;0.50;;;0.50;;
13319;SDS011;59599;47.608;12.190;2024-02-23T07:09:14;1.00;;;0.40;;
13319;SDS011;59599;47.608;12.190;2024-02-23T07:11:40;1.07;;;0.40;;
13319;SDS011;59599;47.608;12.190;2024-02-23T07:14:08;0.60;;;0.40;;
13319;SDS011;59599;47.608;12.190;2024-02-23T07:16:37;0.37;;;0.37;;
13319;SDS011;59599;47.608;12.190;2024-02-23T07:19:06;0.57;;;0.40;;
13319;SDS011;59599;47.608;12.190;2024-02-23T07:21:32;0.40;;;0.40;;
13319;SDS011;59599;47.608;12.190;2024-02-23T07:23:59;0.40;;;0.40;;
13319;SDS011;59599;47.608;12.190;2024-02-23T07:26:25;0.40;;;0.40;;
13319;SDS011;59599;47.608;12.190;2024-02-23T07:28:53;0.50;;;0.50;;
13319;SDS011;59599;47.608;12.190;2024-02-23T07:31:19;0.30;;;0.30;;
13319;SDS011;59599;47.608;12.190;2024-02-23T07:33:45;0.97;;;0.30;;
13319;SDS011;59599;47.608;12.190;2024-02-23T07:36:17;0.73;;;0.50;;
13319;SDS011;59599;47.608;12.190;2024-02-23T07:38:43;0.60;;;0.50;;
13319;SDS011;59599;47.608;12.190;2024-02-23T07:41:09;0.40;;;0.40;;
13319;SDS011;59599;47.608;12.190;2024-02-23T07:43:36;1.00;;;0.60;;
13319;SDS011;59599;47.608;12.190;2024-02-23T07:46:01;0.60;;;0.57;;
13319;SDS011;59599;47.608;12.190;2024-02-23T07:48:28;0.30;;;0.30;;
13319;SDS011;59599;47.608;12.190;2024-02-23T07:50:54;0.60;;;0.60;;
13319;SDS011;59599;47.608;12.190;2024-02-23T07:53:19;0.67;;;0.63;;
13319;SDS011;59599;47.608;12.190;2024-02-23T07:55:45;0.70;;;0.60;;
13319;SDS011;59599;47.608;12.190;2024-02-23T07:58:11;1.07;;;0.50;;
13319;SDS011;59599;47.608;12.190;2024-02-23T08:00:37;0.83;;;0.50;;
13319;SDS011;59599;47.608;12.190;2024-02-23T08:03:03;0.70;;;0.70;;
13319;SDS011;59599;47.608;12.190;2024-02-23T08:05:30;2.17;;;1.30;;
13319;SDS011;59599;47.608;12.190;2024-02-23T08:07:56;3.93;;;1.73;;
13319;SDS011;59599;47.608;12.190;2024-02-23T08:10:22;7.80;;;1.70;;
13319;SDS011;59599;47.608;12.190;2024-02-23T08:12:48;1.00;;;0.90;;
13319;SDS011;59599;47.608;12.190;2024-02-23T08:15:14;4.03;;;1.20;;
13319;SDS011;59599;47.608;12.190;2024-02-23T08:17:40;0.70;;;0.63;;
13319;SDS011;59599;47.608;12.190;2024-02-23T08:20:06;0.43;;;0.40;;
13319;SDS011;59599;47.608;12.190;2024-02-23T08:22:33;0.67;;;0.60;;
13319;SDS011;59599;47.608;12.190;2024-02-23T08:24:58;0.37;;;0.30;;
13319;SDS011;59599;47.608;12.190;2024-02-23T08:27:24;0.50;;;0.50;;
13319;SDS011;59599;47.608;12.190;2024-02-23T08:29:50;1.20;;;0.50;;
13319;SDS011;59599;47.608;12.190;2024-02-23T08:32:16;0.73;;;0.63;;
13319;SDS011;59599;47.608;12.190;2024-02-23T08:34:42;0.77;;;0.43;;
13319;SDS011;59599;47.608;12.190;2024-02-23T08:37:08;3.70;;;0.70;;
13319;SDS011;59599;47.608;12.190;2024-02-23T08:39:34;0.60;;;0.50;;
13319;SDS011;59599;47.608;12.190;2024-02-23T08:42:02;0.40;;;0.40;;
13319;SDS011;59599;47.608;12.190;2024-02-23T08:44:28;0.77;;;0.63;;
13319;SDS011;59599;47.608;12.190;2024-02-23T08:46:54;1.43;;;0.80;;
13319;SDS011;59599;47.608;12.190;2024-02-23T08:49:20;0.97;;;0.63;;
13319;SDS011;59599;47.608;12.190;2024-02-23T08:51:46;2.47;;;0.80;;
13319;SDS011;59599;47.608;12.190;2024-02-23T08:54:11;1.37;;;1.00;;
13319;SDS011;59599;47.608;12.190;2024-02-23T08:56:37;1.43;;;1.20;;
13319;SDS011;59599;47.608;12.190;2024-02-23T08:59:07;1.53;;;1.43;;
13319;SDS011;59599;47.608;12.190;2024-02-23T09:01:34;1.63;;;1.00;;
13319;SDS011;59599;47.608;12.190;2024-02-23T09:04:00;0.97;;;0.87;;
13319;SDS011;59599;47.608;12.190;2024-02-23T09:06:26;1.50;;;1.00;;
13319;SDS011;59599;47.608;12.190;2024-02-23T09:08:51;0.40;;;0.40;;
13319;SDS011;59599;47.608;12.190;2024-02-23T09:11:17;1.70;;;1.13;;
13319;SDS011;59599;47.608;12.190;2024-02-23T09:13:43;2.53;;;0.73;;
13319;SDS011;59599;47.608;12.190;2024-02-23T09:16:08;1.70;;;0.70;;
13319;SDS011;59599;47.608;12.190;2024-02-23T09:18:35;1.50;;;0.60;;
13319;SDS011;59599;47.608;12.190;2024-02-23T09:21:01;1.07;;;0.80;;
13319;SDS011;59599;47.608;12.190;2024-02-23T09:23:27;0.87;;;0.73;;
13319;SDS011;59599;47.608;12.190;2024-02-23T09:25:52;0.43;;;0.43;;
13319;SDS011;59599;47.608;12.190;2024-02-23T09:28:18;0.73;;;0.70;;
13319;SDS011;59599;47.608;12.190;2024-02-23T09:30:45;1.37;;;1.13;;
13319;SDS011;59599;47.608;12.190;2024-02-23T09:33:11;2.40;;;1.50;;
13319;SDS011;59599;47.608;12.190;2024-02-23T09:35:37;1.47;;;0.90;;
13319;SDS011;59599;47.608;12.190;2024-02-23T09:38:03;2.50;;;1.00;;
13319;SDS011;59599;47.608;12.190;2024-02-23T09:40:29;0.60;;;0.57;;
13319;SDS011;59599;47.608;12.190;2024-02-23T09:42:56;0.90;;;0.70;;
13319;SDS011;59599;47.608;12.190;2024-02-23T09:45:26;1.10;;;0.80;;
13319;SDS011;59599;47.608;12.190;2024-02-23T09:47:56;1.10;;;0.80;;
13319;SDS011;59599;47.608;12.190;2024-02-23T09:50:22;1.03;;;0.80;;
13319;SDS011;59599;47.608;12.190;2024-02-23T09:52:49;3.73;;;1.40;;
13319;SDS011;59599;47.608;12.190;2024-02-23T09:55:18;2.73;;;1.63;;
13319;SDS011;59599;47.608;12.190;2024-02-23T09:57:46;1.73;;;1.07;;
13319;SDS011;59599;47.608;12.190;2024-02-23T10:00:15;0.97;;;0.80;;
13319;SDS011;59599;47.608;12.190;2024-02-23T10:02:42;0.60;;;0.60;;
13319;SDS011;59599;47.608;12.190;2024-02-23T10:05:08;0.90;;;0.70;;
13319;SDS011;59599;47.608;12.190;2024-02-23T10:07:35;2.43;;;0.80;;
13319;SDS011;59599;47.608;12.190;2024-02-23T10:10:01;0.70;;;0.70;;
13319;SDS011;59599;47.608;12.190;2024-02-23T10:12:28;0.90;;;0.73;;
13319;SDS011;59599;47.608;12.190;2024-02-23T10:14:54;0.70;;;0.60;;
13319;SDS011;59599;47.608;12.190;2024-02-23T10:17:20;1.07;;;0.90;;
13319;SDS011;59599;47.608;12.190;2024-02-23T10:19:46;1.30;;;1.20;;
13319;SDS011;59599;47.608;12.190;2024-02-23T10:22:12;2.80;;;2.07;;
13319;SDS011;59599;47.608;12.190;2024-02-23T10:24:38;1.50;;;1.20;;
13319;SDS011;59599;47.608;12.190;2024-02-23T10:27:04;1.20;;;0.83;;
13319;SDS011;59599;47.608;12.190;2024-02-23T10:29:30;0.70;;;0.70;;
13319;SDS011;59599;47.608;12.190;2024-02-23T10:31:56;0.60;;;0.60;;
13319;SDS011;59599;47.608;12.190;2024-02-23T10:34:23;0.70;;;0.70;;
13319;SDS011;59599;47.608;12.190;2024-02-23T10:36:49;0.57;;;0.57;;
13319;SDS011;59599;47.608;12.190;2024-02-23T10:39:15;0.97;;;0.70;;
13319;SDS011;59599;47.608;12.190;2024-02-23T10:41:51;1.33;;;1.00;;
13319;SDS011;59599;47.608;12.190;2024-02-23T10:44:26;1.60;;;1.20;;
13319;SDS011;59599;47.608;12.190;2024-02-23T10:46:52;1.03;;;0.93;;
13319;SDS011;59599;47.608;12.190;2024-02-23T10:49:18;0.70;;;0.70;;
13319;SDS011;59599;47.608;12.190;2024-02-23T10:51:45;0.27;;;0.27;;
13319;SDS011;59599;47.608;12.190;2024-02-23T10:54:13;1.00;;;0.80;;
13319;SDS011;59599;47.608;12.190;2024-02-23T10:56:39;2.30;;;1.33;;
13319;SDS011;59599;47.608;12.190;2024-02-23T10:59:05;4.57;;;2.27;;
13319;SDS011;59599;47.608;12.190;2024-02-23T11:01:32;3.67;;;1.73;;
13319;SDS011;59599;47.608;12.190;2024-02-23T11:04:01;1.53;;;1.30;;
13319;SDS011;59599;47.608;12.190;2024-02-23T11:06:28;2.90;;;1.30;;
13319;SDS011;59599;47.608;12.190;2024-02-23T11:08:53;2.60;;;1.30;;
13319;SDS011;59599;47.608;12.190;2024-02-23T11:11:29;4.20;;;1.80;;
13319;SDS011;59599;47.608;12.190;2024-02-23T11:13:58;4.00;;;1.57;;
13319;SDS011;59599;47.608;12.190;2024-02-23T11:16:28;1.57;;;1.30;;
13319;SDS011;59599;47.608;12.190;2024-02-23T11:19:06;0.70;;;0.60;;
13319;SDS011;59599;47.608;12.190;2024-02-23T11:21:35;0.90;;;0.60;;
13319;SDS011;59599;47.608;12.190;2024-02-23T11:24:02;2.23;;;1.10;;
13319;SDS011;59599;47.608;12.190;2024-02-23T11:26:28;1.47;;;0.87;;
13319;SDS011;59599;47.608;12.190;2024-02-23T11:28:54;4.97;;;1.10;;
13319;SDS011;59599;47.608;12.190;2024-02-23T11:31:21;2.77;;;1.10;;
13319;SDS011;59599;47.608;12.190;2024-02-23T11:33:48;3.50;;;1.77;;
13319;SDS011;59599;47.608;12.190;2024-02-23T11:38:53;3.80;;;1.87;;
13319;SDS011;59599;47.608;12.190;2024-02-23T11:41:22;1.93;;;1.27;;
13319;SDS011;59599;47.608;12.190;2024-02-23T11:43:48;1.50;;;1.30;;
13319;SDS011;59599;47.608;12.190;2024-02-23T11:46:15;1.77;;;0.90;;
13319;SDS011;59599;47.608;12.190;2024-02-23T11:48:41;3.53;;;1.27;;
13319;SDS011;59599;47.608;12.190;2024-02-23T11:51:08;1.53;;;1.00;;
13319;SDS011;59599;47.608;12.190;2024-02-23T11:53:35;2.37;;;1.50;;
13319;SDS011;59599;47.608;12.190;2024-02-23T11:56:01;2.13;;;1.50;;
13319;SDS011;59599;47.608;12.190;2024-02-23T11:58:27;6.13;;;2.50;;
13319;SDS011;59599;47.608;12.190;2024-02-23T12:00:54;4.70;;;2.13;;
13319;SDS011;59599;47.608;12.190;2024-02-23T12:03:20;10.57;;;3.70;;
13319;SDS011;59599;47.608;12.190;2024-02-23T12:05:48;2.27;;;1.40;;
13319;SDS011;59599;47.608;12.190;2024-02-23T12:08:15;1.60;;;1.30;;
13319;SDS011;59599;47.608;12.190;2024-02-23T12:10:41;2.40;;;1.50;;
13319;SDS011;59599;47.608;12.190;2024-02-23T12:13:06;2.60;;;1.27;;
13319;SDS011;59599;47.608;12.190;2024-02-23T12:15:32;2.33;;;1.50;;
13319;SDS011;59599;47.608;12.190;2024-02-23T12:17:58;2.03;;;1.40;;
13319;SDS011;59599;47.608;12.190;2024-02-23T12:20:27;1.80;;;1.33;;
13319;SDS011;59599;47.608;12.190;2024-02-23T12:22:54;3.57;;;2.60;;
13319;SDS011;59599;47.608;12.190;2024-02-23T12:25:23;2.90;;;2.40;;
13319;SDS011;59599;47.608;12.190;2024-02-23T12:27:56;3.47;;;2.67;;
13319;SDS011;59599;47.608;12.190;2024-02-23T12:30:22;3.93;;;1.67;;
13319;SDS011;59599;47.608;12.190;2024-02-23T12:32:48;2.20;;;1.90;;
13319;SDS011;59599;47.608;12.190;2024-02-23T12:35:14;7.27;;;4.87;;
13319;SDS011;59599;47.608;12.190;2024-02-23T12:37:42;4.50;;;2.10;;
13319;SDS011;59599;47.608;12.190;2024-02-23T12:40:08;1.63;;;1.20;;
13319;SDS011;59599;47.608;12.190;2024-02-23T12:42:34;1.63;;;1.30;;
13319;SDS011;59599;47.608;12.190;2024-02-23T12:45:00;1.20;;;1.10;;
13319;SDS011;59599;47.608;12.190;2024-02-23T12:47:27;2.20;;;1.37;;
13319;SDS011;59599;47.608;12.190;2024-02-23T12:49:53;3.00;;;1.90;;
13319;SDS011;59599;47.608;12.190;2024-02-23T12:52:19;2.20;;;1.43;;
13319;SDS011;59599;47.608;12.190;2024-02-23T12:54:45;1.87;;;1.40;;
13319;SDS011;59599;47.608;12.190;2024-02-23T12:57:11;2.43;;;1.50;;
13319;SDS011;59599;47.608;12.190;2024-02-23T12:59:37;2.10;;;1.17;;
13319;SDS011;59599;47.608;12.190;2024-02-23T13:02:03;4.07;;;2.20;;
13319;SDS011;59599;47.608;12.190;2024-02-23T13:04:29;2.50;;;1.93;;
13319;SDS011;59599;47.608;12.190;2024-02-23T13:06:55;3.10;;;1.90;;
13319;SDS011;59599;47.608;12.190;2024-02-23T13:09:23;2.57;;;1.90;;
13319;SDS011;59599;47.608;12.190;2024-02-23T13:11:49;3.77;;;2.23;;
13319;SDS011;59599;47.608;12.190;2024-02-23T13:14:15;5.73;;;2.20;;
13319;SDS011;59599;47.608;12.190;2024-02-23T13:16:41;4.73;;;2.73;;
13319;SDS011;59599;47.608;12.190;2024-02-23T13:19:07;9.90;;;3.07;;
13319;SDS011;59599;47.608;12.190;2024-02-23T13:21:34;7.80;;;3.40;;
13319;SDS011;59599;47.608;12.190;2024-02-23T13:23:59;4.83;;;2.90;;
13319;SDS011;59599;47.608;12.190;2024-02-23T13:26:25;3.27;;;2.40;;
13319;SDS011;59599;47.608;12.190;2024-02-23T13:28:51;3.90;;;2.33;;
13319;SDS011;59599;47.608;12.190;2024-02-23T13:31:17;4.00;;;2.40;;
13319;SDS011;59599;47.608;12.190;2024-02-23T13:33:44;6.33;;;3.20;;
13319;SDS011;59599;47.608;12.190;2024-02-23T13:36:10;3.43;;;2.30;;
13319;SDS011;59599;47.608;12.190;2024-02-23T13:38:37;5.53;;;2.20;;
13319;SDS011;59599;47.608;12.190;2024-02-23T13:41:04;4.03;;;2.07;;
13319;SDS011;59599;47.608;12.190;2024-02-23T13:43:30;2.17;;;1.40;;
13319;SDS011;59599;47.608;12.190;2024-02-23T13:45:56;1.97;;;1.30;;
13319;SDS011;59599;47.608;12.190;2024-02-23T13:48:22;1.70;;;1.30;;
13319;SDS011;59599;47.608;12.190;2024-02-23T13:50:49;2.70;;;1.50;;
13319;SDS011;59599;47.608;12.190;2024-02-23T13:53:14;2.13;;;1.20;;
13319;SDS011;59599;47.608;12.190;2024-02-23T13:55:41;3.40;;;1.90;;
13319;SDS011;59599;47.608;12.190;2024-02-23T13:58:09;3.00;;;2.17;;
13319;SDS011;59599;47.608;12.190;2024-02-23T14:00:34;4.77;;;2.80;;
13319;SDS011;59599;47.608;12.190;2024-02-23T14:03:00;2.60;;;2.20;;
13319;SDS011;59599;47.608;12.190;2024-02-23T14:05:26;2.73;;;2.30;;
13319;SDS011;59599;47.608;12.190;2024-02-23T14:07:53;4.60;;;2.20;;
13319;SDS011;59599;47.608;12.190;2024-02-23T14:10:19;3.77;;;3.03;;
13319;SDS011;59599;47.608;12.190;2024-02-23T14:12:44;5.80;;;3.97;;
13319;SDS011;59599;47.608;12.190;2024-02-23T14:15:11;4.90;;;4.40;;
13319;SDS011;59599;47.608;12.190;2024-02-23T14:17:38;6.53;;;4.50;;
13319;SDS011;59599;47.608;12.190;2024-02-23T14:20:04;4.83;;;3.60;;
13319;SDS011;59599;47.608;12.190;2024-02-23T14:22:31;5.03;;;3.40;;
13319;SDS011;59599;47.608;12.190;2024-02-23T14:24:57;3.20;;;2.90;;
13319;SDS011;59599;47.608;12.190;2024-02-23T14:27:23;3.37;;;2.50;;
13319;SDS011;59599;47.608;12.190;2024-02-23T14:29:49;4.97;;;3.43;;
13319;SDS011;59599;47.608;12.190;2024-02-23T14:32:15;5.70;;;4.70;;
13319;SDS011;59599;47.608;12.190;2024-02-23T14:34:42;5.77;;;4.20;;
13319;SDS011;59599;47.608;12.190;2024-02-23T14:37:08;13.13;;;8.90;;
13319;SDS011;59599;47.608;12.190;2024-02-23T14:39:34;19.30;;;11.53;;
13319;SDS011;59599;47.608;12.190;2024-02-23T14:42:00;13.67;;;9.10;;
13319;SDS011;59599;47.608;12.190;2024-02-23T14:44:25;8.33;;;6.83;;
13319;SDS011;59599;47.608;12.190;2024-02-23T14:46:51;7.97;;;6.83;;
13319;SDS011;59599;47.608;12.190;2024-02-23T14:49:17;6.80;;;5.40;;
13319;SDS011;59599;47.608;12.190;2024-02-23T14:51:43;8.10;;;4.80;;
13319;SDS011;59599;47.608;12.190;2024-02-23T14:54:10;6.13;;;4.73;;
13319;SDS011;59599;47.608;12.190;2024-02-23T14:56:37;8.00;;;6.40;;
13319;SDS011;59599;47.608;12.190;2024-02-23T14:59:03;7.33;;;6.17;;
13319;SDS011;59599;47.608;12.190;2024-02-23T15:01:28;5.60;;;5.10;;
13319;SDS011;59599;47.608;12.190;2024-02-23T15:03:54;6.33;;;5.00;;
13319;SDS011;59599;47.608;12.190;2024-02-23T15:06:23;5.53;;;5.00;;
13319;SDS011;59599;47.608;12.190;2024-02-23T15:08:49;5.73;;;5.00;;
13319;SDS011;59599;47.608;12.190;2024-02-23T15:11:15;6.57;;;5.80;;
13319;SDS011;59599;47.608;12.190;2024-02-23T15:13:41;5.60;;;5.00;;
13319;SDS011;59599;47.608;12.190;2024-02-23T15:16:07;4.50;;;4.10;;
13319;SDS011;59599;47.608;12.190;2024-02-23T15:18:33;5.20;;;4.70;;
13319;SDS011;59599;47.608;12.190;2024-02-23T15:21:00;4.57;;;3.93;;
13319;SDS011;59599;47.608;12.190;2024-02-23T15:23:26;6.90;;;5.23;;
13319;SDS011;59599;47.608;12.190;2024-02-23T15:25:52;7.93;;;6.80;;
13319;SDS011;59599;47.608;12.190;2024-02-23T15:28:19;8.17;;;6.30;;
13319;SDS011;59599;47.608;12.190;2024-02-23T15:30:48;8.67;;;6.67;;
13319;SDS011;59599;47.608;12.190;2024-02-23T15:33:14;6.57;;;5.70;;
13319;SDS011;59599;47.608;12.190;2024-02-23T15:35:40;6.17;;;5.57;;
13319;SDS011;59599;47.608;12.190;2024-02-23T15:38:06;6.43;;;5.03;;
13319;SDS011;59599;47.608;12.190;2024-02-23T15:40:32;5.83;;;5.23;;
13319;SDS011;59599;47.608;12.190;2024-02-23T15:42:58;5.20;;;4.70;;
13319;SDS011;59599;47.608;12.190;2024-02-23T15:45:24;7.00;;;5.57;;
13319;SDS011;59599;47.608;12.190;2024-02-23T15:47:50;6.23;;;5.10;;
13319;SDS011;59599;47.608;12.190;2024-02-23T15:50:16;5.77;;;5.17;;
13319;SDS011;59599;47.608;12.190;2024-02-23T15:52:44;6.93;;;5.87;;
13319;SDS011;59599;47.608;12.190;2024-02-23T15:55:11;7.43;;;6.47;;
13319;SDS011;59599;47.608;12.190;2024-02-23T15:57:37;6.87;;;6.23;;
13319;SDS011;59599;47.608;12.190;2024-02-23T16:00:04;7.93;;;6.13;;
13319;SDS011;59599;47.608;12.190;2024-02-23T16:02:30;11.87;;;6.07;;
13319;SDS011;59599;47.608;12.190;2024-02-23T16:04:56;10.07;;;7.07;;
13319;SDS011;59599;47.608;12.190;2024-02-23T16:07:23;8.63;;;6.97;;
13319;SDS011;59599;47.608;12.190;2024-02-23T16:09:49;9.80;;;7.00;;
13319;SDS011;59599;47.608;12.190;2024-02-23T16:12:14;11.40;;;7.60;;
13319;SDS011;59599;47.608;12.190;2024-02-23T16:14:40;10.37;;;7.87;;
13319;SDS011;59599;47.608;12.190;2024-02-23T16:17:07;10.77;;;7.13;;
13319;SDS011;59599;47.608;12.190;2024-02-23T16:19:33;10.50;;;7.83;;
13319;SDS011;59599;47.608;12.190;2024-02-23T16:21:59;9.10;;;7.03;;
13319;SDS011;59599;47.608;12.190;2024-02-23T16:24:25;14.50;;;8.47;;
13319;SDS011;59599;47.608;12.190;2024-02-23T16:26:51;7.80;;;7.00;;
13319;SDS011;59599;47.608;12.190;2024-02-23T16:29:17;10.10;;;7.33;;
13319;SDS011;59599;47.608;12.190;2024-02-23T16:31:44;7.63;;;6.57;;
13319;SDS011;59599;47.608;12.190;2024-02-23T16:34:09;8.87;;;7.93;;
13319;SDS011;59599;47.608;12.190;2024-02-23T16:36:35;11.70;;;7.77;;
13319;SDS011;59599;47.608;12.190;2024-02-23T16:39:01;8.57;;;7.77;;
13319;SDS011;59599;47.608;12.190;2024-02-23T16:41:28;13.03;;;8.47;;
13319;SDS011;59599;47.608;12.190;2024-02-23T16:43:55;12.03;;;9.90;;
13319;SDS011;59599;47.608;12.190;2024-02-23T16:46:21;13.63;;;9.87;;
13319;SDS011;59599;47.608;12.190;2024-02-23T16:48:47;15.27;;;10.73;;
13319;SDS011;59599;47.608;12.190;2024-02-23T16:51:13;13.07;;;10.53;;
13319;SDS011;59599;47.608;12.190;2024-02-23T16:53:40;14.83;;;10.83;;
13319;SDS011;59599;47.608;12.190;2024-02-23T16:56:06;14.13;;;10.10;;
13319;SDS011;59599;47.608;12.190;2024-02-23T16:58:32;14.57;;;9.47;;
13319;SDS011;59599;47.608;12.190;2024-02-23T17:01:01;12.00;;;9.13;;
13319;SDS011;59599;47.608;12.190;2024-02-23T17:03:28;10.67;;;9.27;;
13319;SDS011;59599;47.608;12.190;2024-02-23T17:05:54;10.97;;;8.33;;
13319;SDS011;59599;47.608;12.190;2024-02-23T17:08:20;9.17;;;7.50;;
13319;SDS011;59599;47.608;12.190;2024-02-23T17:10:46;10.90;;;7.70;;
13319;SDS011;59599;47.608;12.190;2024-02-23T17:13:12;7.77;;;6.97;;
13319;SDS011;59599;47.608;12.190;2024-02-23T17:15:38;10.37;;;8.10;;
13319;SDS011;59599;47.608;12.190;2024-02-23T17:18:04;12.47;;;9.43;;
13319;SDS011;59599;47.608;12.190;2024-02-23T17:20:30;13.50;;;10.10;;
13319;SDS011;59599;47.608;12.190;2024-02-23T17:22:56;15.83;;;11.70;;
13319;SDS011;59599;47.608;12.190;2024-02-23T17:25:23;13.97;;;10.00;;
13319;SDS011;59599;47.608;12.190;2024-02-23T17:27:49;12.00;;;9.20;;
13319;SDS011;59599;47.608;12.190;2024-02-23T17:30:17;17.27;;;12.90;;
13319;SDS011;59599;47.608;12.190;2024-02-23T17:32:43;19.47;;;13.63;;
13319;SDS011;59599;47.608;12.190;2024-02-23T17:35:08;15.90;;;11.83;;
13319;SDS011;59599;47.608;12.190;2024-02-23T17:37:35;13.23;;;10.67;;
13319;SDS011;59599;47.608;12.190;2024-02-23T17:40:01;12.10;;;9.37;;
13319;SDS011;59599;47.608;12.190;2024-02-23T17:42:27;13.37;;;9.33;;
13319;SDS011;59599;47.608;12.190;2024-02-23T17:44:53;10.60;;;9.03;;
13319;SDS011;59599;47.608;12.190;2024-02-23T17:47:19;10.00;;;8.10;;
13319;SDS011;59599;47.608;12.190;2024-02-23T17:49:45;13.70;;;9.60;;
13319;SDS011;59599;47.608;12.190;2024-02-23T17:52:12;15.03;;;11.47;;
13319;SDS011;59599;47.608;12.190;2024-02-23T17:54:38;13.63;;;11.37;;
13319;SDS011;59599;47.608;12.190;2024-02-23T17:57:04;14.57;;;11.50;;
13319;SDS011;59599;47.608;12.190;2024-02-23T17:59:30;12.57;;;9.80;;
13319;SDS011;59599;47.608;12.190;2024-02-23T18:01:55;10.77;;;9.40;;
13319;SDS011;59599;47.608;12.190;2024-02-23T18:04:21;12.13;;;9.37;;
13319;SDS011;59599;47.608;12.190;2024-02-23T18:06:48;11.77;;;9.63;;
13319;SDS011;59599;47.608;12.190;2024-02-23T18:09:15;14.30;;;9.53;;
13319;SDS011;59599;47.608;12.190;2024-02-23T18:11:41;11.80;;;8.60;;
13319;SDS011;59599;47.608;12.190;2024-02-23T18:14:07;10.27;;;8.43;;
13319;SDS011;59599;47.608;12.190;2024-02-23T18:16:36;12.80;;;8.80;;
13319;SDS011;59599;47.608;12.190;2024-02-23T18:19:02;11.77;;;8.50;;
13319;SDS011;59599;47.608;12.190;2024-02-23T18:21:30;9.00;;;7.63;;
13319;SDS011;59599;47.608;12.190;2024-02-23T18:23:56;8.43;;;7.20;;
13319;SDS011;59599;47.608;12.190;2024-02-23T18:26:22;8.67;;;7.17;;
13319;SDS011;59599;47.608;12.190;2024-02-23T18:28:48;11.87;;;8.33;;
13319;SDS011;59599;47.608;12.190;2024-02-23T18:31:17;9.73;;;8.50;;
13319;SDS011;59599;47.608;12.190;2024-02-23T18:33:44;10.07;;;8.00;;
13319;SDS011;59599;47.608;12.190;2024-02-23T18:36:10;12.37;;;9.73;;
13319;SDS011;59599;47.608;12.190;2024-02-23T18:38:44;11.00;;;8.67;;
13319;SDS011;59599;47.608;12.190;2024-02-23T18:41:11;11.27;;;8.77;;
13319;SDS011;59599;47.608;12.190;2024-02-23T18:43:37;9.70;;;7.30;;
13319;SDS011;59599;47.608;12.190;2024-02-23T18:46:07;10.37;;;7.53;;
13319;SDS011;59599;47.608;12.190;2024-02-23T18:48:33;9.77;;;7.87;;
13319;SDS011;59599;47.608;12.190;2024-02-23T18:51:02;9.53;;;7.93;;
13319;SDS011;59599;47.608;12.190;2024-02-23T18:53:28;10.90;;;8.93;;
13319;SDS011;59599;47.608;12.190;2024-02-23T18:55:54;13.83;;;9.70;;
13319;SDS011;59599;47.608;12.190;2024-02-23T18:58:20;12.27;;;10.27;;
13319;SDS011;59599;47.608;12.190;2024-02-23T19:00:46;10.97;;;9.70;;
13319;SDS011;59599;47.608;12.190;2024-02-23T19:03:12;11.43;;;10.00;;
13319;SDS011;59599;47.608;12.190;2024-02-23T19:05:38;12.77;;;10.07;;
13319;SDS011;59599;47.608;12.190;2024-02-23T19:08:08;10.97;;;9.63;;
13319;SDS011;59599;47.608;12.190;2024-02-23T19:10:34;9.73;;;8.73;;
13319;SDS011;59599;47.608;12.190;2024-02-23T19:13:00;10.70;;;8.90;;
13319;SDS011;59599;47.608;12.190;2024-02-23T19:15:26;10.60;;;7.93;;
13319;SDS011;59599;47.608;12.190;2024-02-23T19:17:52;9.37;;;8.27;;
13319;SDS011;59599;47.608;12.190;2024-02-23T19:20:19;10.47;;;8.60;;
13319;SDS011;59599;47.608;12.190;2024-02-23T19:22:45;11.47;;;9.33;;
13319;SDS011;59599;47.608;12.190;2024-02-23T19:25:11;11.30;;;10.07;;
13319;SDS011;59599;47.608;12.190;2024-02-23T19:27:37;14.20;;;11.30;;
13319;SDS011;59599;47.608;12.190;2024-02-23T19:30:04;13.47;;;11.13;;